createdAt,value
2023-05-10T00:00:06.867Z,959.40
2023-05-10T00:01:06.840Z,959.50
2023-05-10T00:02:06.887Z,959.34
2023-05-10T00:03:06.983Z,959.39
2023-05-10T00:04:06.863Z,959.46
2023-05-10T00:05:06.783Z,959.48
2023-05-10T00:06:06.789Z,959.44
2023-05-10T00:07:06.828Z,959.42
2023-05-10T00:08:06.774Z,959.40
2023-05-10T00:09:06.748Z,959.46
2023-05-10T00:10:06.748Z,959.48
2023-05-10T00:11:06.739Z,959.48
2023-05-10T00:12:06.765Z,959.52
2023-05-10T00:13:06.754Z,959.49
2023-05-10T00:14:06.673Z,959.52
2023-05-10T00:15:06.692Z,959.50
2023-05-10T00:16:06.749Z,959.52
2023-05-10T00:17:06.678Z,959.52
2023-05-10T00:18:06.709Z,959.54
2023-05-10T00:19:06.661Z,959.50
2023-05-10T00:20:06.622Z,959.58
2023-05-10T00:21:06.625Z,959.56
2023-05-10T00:22:06.614Z,959.54
2023-05-10T00:23:06.601Z,959.51
2023-05-10T00:24:06.567Z,959.63
2023-05-10T00:25:06.570Z,959.62
2023-05-10T00:26:06.564Z,959.60
2023-05-10T00:27:06.553Z,959.51
2023-05-10T00:28:06.544Z,959.52
2023-05-10T00:29:06.538Z,959.58
2023-05-10T00:30:06.506Z,959.57
2023-05-10T00:31:06.520Z,959.56
2023-05-10T00:32:06.529Z,959.61
2023-05-10T00:33:06.549Z,959.60
2023-05-10T00:34:06.474Z,959.54
2023-05-10T00:35:06.484Z,959.57
2023-05-10T00:36:06.459Z,959.60
2023-05-10T00:37:06.466Z,959.49
2023-05-10T00:38:06.440Z,959.54
2023-05-10T00:39:06.431Z,959.57
2023-05-10T00:40:06.428Z,959.60
2023-05-10T00:41:06.412Z,959.56
2023-05-10T00:42:06.388Z,959.65
2023-05-10T00:43:06.375Z,959.57
2023-05-10T00:44:06.387Z,959.67
2023-05-10T00:45:06.364Z,959.69
2023-05-10T00:46:06.420Z,959.68
2023-05-10T00:47:06.367Z,959.69
2023-05-10T00:48:06.364Z,959.67
2023-05-10T00:49:06.298Z,959.65
2023-05-10T00:50:06.315Z,959.68
2023-05-10T00:51:06.290Z,959.72
2023-05-10T00:52:06.283Z,959.68
2023-05-10T00:53:06.276Z,959.57
2023-05-10T00:54:06.259Z,959.66
2023-05-10T00:55:06.236Z,959.70
2023-05-10T00:56:06.229Z,959.70
2023-05-10T00:57:06.235Z,959.70
2023-05-10T00:58:06.264Z,959.72
2023-05-10T00:59:06.201Z,959.72
2023-05-10T01:00:06.189Z,959.72
2023-05-10T01:01:06.247Z,959.70
2023-05-10T01:02:06.218Z,959.64
2023-05-10T01:03:06.243Z,959.60
2023-05-10T01:04:06.138Z,959.60
2023-05-10T01:05:06.234Z,959.58
2023-05-10T01:06:06.128Z,959.60
2023-05-10T01:07:06.127Z,959.54
2023-05-10T01:08:06.112Z,959.56
2023-05-10T01:09:06.086Z,959.57
2023-05-10T01:10:06.078Z,959.55
2023-05-10T01:11:06.086Z,959.60
2023-05-10T01:12:06.115Z,959.58
2023-05-10T01:13:06.088Z,959.58
2023-05-10T01:14:06.035Z,959.59
2023-05-10T01:15:06.028Z,959.58
2023-05-10T01:16:06.060Z,959.61
2023-05-10T01:17:06.009Z,959.57
2023-05-10T01:18:06.040Z,959.56
2023-05-10T01:19:05.979Z,959.61
2023-05-10T01:20:05.960Z,959.60
2023-05-10T01:21:05.981Z,959.58
2023-05-10T01:22:05.945Z,959.69
2023-05-10T01:23:05.943Z,959.69
2023-05-10T01:24:05.917Z,959.68
2023-05-10T01:25:05.905Z,959.68
2023-05-10T01:26:05.910Z,959.66
2023-05-10T01:27:05.887Z,959.67
2023-05-10T01:28:05.880Z,959.63
2023-05-10T01:29:05.890Z,959.67
2023-05-10T01:30:15.636Z,959.70
2023-05-10T01:31:05.919Z,959.59
2023-05-10T01:32:05.837Z,959.59
2023-05-10T01:33:05.874Z,959.60
2023-05-10T01:34:05.826Z,959.62
2023-05-10T01:35:05.845Z,959.63
2023-05-10T01:36:05.813Z,959.67
2023-05-10T01:37:05.797Z,959.70
2023-05-10T01:38:05.768Z,959.68
2023-05-10T01:39:05.760Z,959.69
2023-05-10T01:40:05.754Z,959.72
2023-05-10T01:41:05.741Z,959.78
2023-05-10T01:42:05.726Z,959.80
2023-05-10T01:43:05.713Z,959.80
2023-05-10T01:44:05.730Z,959.83
2023-05-10T01:45:05.699Z,959.87
2023-05-10T01:46:05.696Z,959.80
2023-05-10T01:47:05.691Z,959.86
2023-05-10T01:48:05.706Z,959.90
2023-05-10T01:49:05.646Z,959.87
2023-05-10T01:50:05.649Z,959.85
2023-05-10T01:51:05.625Z,959.91
2023-05-10T01:52:05.600Z,959.84
2023-05-10T01:53:05.612Z,959.92
2023-05-10T01:54:05.568Z,959.91
2023-05-10T01:55:05.587Z,959.98
2023-05-10T01:56:05.544Z,959.92
2023-05-10T01:57:05.547Z,959.95
2023-05-10T01:58:05.548Z,959.96
2023-05-10T01:59:05.534Z,959.94
2023-05-10T02:00:05.522Z,959.98
2023-05-10T02:01:05.535Z,960.03
2023-05-10T02:02:05.521Z,960.04
2023-05-10T02:03:05.534Z,960.03
2023-05-10T02:04:05.541Z,960.05
2023-05-10T02:05:05.489Z,960.06
2023-05-10T02:06:05.431Z,960.09
2023-05-10T02:07:05.456Z,960.07
2023-05-10T02:08:05.468Z,960.00
2023-05-10T02:09:05.421Z,959.99
2023-05-10T02:10:05.433Z,959.97
2023-05-10T02:11:05.397Z,960.00
2023-05-10T02:12:05.388Z,960.03
2023-05-10T02:13:05.378Z,960.01
2023-05-10T02:14:05.388Z,960.04
2023-05-10T02:15:05.355Z,960.11
2023-05-10T02:16:05.437Z,960.01
2023-05-10T02:17:05.372Z,960.10
2023-05-10T02:18:05.376Z,960.11
2023-05-10T02:19:05.316Z,960.08
2023-05-10T02:20:05.282Z,960.05
2023-05-10T02:21:05.282Z,960.08
2023-05-10T02:22:05.303Z,960.11
2023-05-10T02:23:05.265Z,960.09
2023-05-10T02:24:05.262Z,960.05
2023-05-10T02:25:05.238Z,960.06
2023-05-10T02:26:05.241Z,960.09
2023-05-10T02:27:05.230Z,960.10
2023-05-10T02:28:05.214Z,960.03
2023-05-10T02:29:05.212Z,960.05
2023-05-10T02:30:05.186Z,960.07
2023-05-10T02:31:05.204Z,960.05
2023-05-10T02:32:05.178Z,960.12
2023-05-10T02:33:05.225Z,960.14
2023-05-10T02:34:05.181Z,960.11
2023-05-10T02:35:05.144Z,960.15
2023-05-10T02:36:05.130Z,960.19
2023-05-10T02:37:05.137Z,960.21
2023-05-10T02:38:05.100Z,960.17
2023-05-10T02:39:05.088Z,960.14
2023-05-10T02:40:05.133Z,960.17
2023-05-10T02:41:05.091Z,960.18
2023-05-10T02:42:05.048Z,960.19
2023-05-10T02:43:05.052Z,960.20
2023-05-10T02:44:05.044Z,960.16
2023-05-10T02:45:05.011Z,960.14
2023-05-10T02:46:05.096Z,960.17
2023-05-10T02:47:05.002Z,960.17
2023-05-10T02:48:05.018Z,960.19
2023-05-10T02:49:04.991Z,960.20
2023-05-10T02:50:04.949Z,960.19
2023-05-10T02:51:04.953Z,960.17
2023-05-10T02:52:04.953Z,960.13
2023-05-10T02:53:04.920Z,960.16
2023-05-10T02:54:04.927Z,960.19
2023-05-10T02:55:04.955Z,960.18
2023-05-10T02:56:04.895Z,960.18
2023-05-10T02:57:04.894Z,960.21
2023-05-10T02:58:04.894Z,960.21
2023-05-10T02:59:04.860Z,960.23
2023-05-10T03:00:04.858Z,960.27
2023-05-10T03:01:05.009Z,960.23
2023-05-10T03:02:04.823Z,960.16
2023-05-10T03:03:04.867Z,960.15
2023-05-10T03:04:04.831Z,960.12
2023-05-10T03:05:04.826Z,960.15
2023-05-10T03:06:04.771Z,960.15
2023-05-10T03:07:04.780Z,960.18
2023-05-10T03:08:04.767Z,960.23
2023-05-10T03:09:04.787Z,960.24
2023-05-10T03:10:04.759Z,960.22
2023-05-10T03:11:04.754Z,960.20
2023-05-10T03:12:04.732Z,960.16
2023-05-10T03:13:04.778Z,960.15
2023-05-10T03:14:04.686Z,960.21
2023-05-10T03:15:04.718Z,960.27
2023-05-10T03:16:04.728Z,960.26
2023-05-10T03:17:04.673Z,960.22
2023-05-10T03:18:04.721Z,960.24
2023-05-10T03:19:04.679Z,960.24
2023-05-10T03:20:04.651Z,960.19
2023-05-10T03:21:04.639Z,960.19
2023-05-10T03:22:04.610Z,960.22
2023-05-10T03:23:04.600Z,960.22
2023-05-10T03:24:04.638Z,960.19
2023-05-10T03:25:04.589Z,960.22
2023-05-10T03:26:04.561Z,960.33
2023-05-10T03:27:04.563Z,960.31
2023-05-10T03:28:04.568Z,960.32
2023-05-10T03:29:04.539Z,960.29
2023-05-10T03:30:04.527Z,960.30
2023-05-10T03:31:04.554Z,960.32
2023-05-10T03:32:04.498Z,960.37
2023-05-10T03:33:04.562Z,960.34
2023-05-10T03:34:04.486Z,960.39
2023-05-10T03:35:04.475Z,960.36
2023-05-10T03:36:04.505Z,960.30
2023-05-10T03:37:04.444Z,960.32
2023-05-10T03:38:04.454Z,960.31
2023-05-10T03:39:04.436Z,960.32
2023-05-10T03:40:04.422Z,960.30
2023-05-10T03:41:04.397Z,960.31
2023-05-10T03:42:04.382Z,960.35
2023-05-10T03:43:04.370Z,960.42
2023-05-10T03:44:04.385Z,960.48
2023-05-10T03:45:04.373Z,960.39
2023-05-10T03:46:04.338Z,960.40
2023-05-10T03:47:04.520Z,960.35
2023-05-10T03:48:04.363Z,960.29
2023-05-10T03:49:04.299Z,960.36
2023-05-10T03:50:04.292Z,960.40
2023-05-10T03:51:04.296Z,960.40
2023-05-10T03:52:04.280Z,960.39
2023-05-10T03:53:04.270Z,960.46
2023-05-10T03:54:04.264Z,960.42
2023-05-10T03:55:04.244Z,960.42
2023-05-10T03:56:04.281Z,960.44
2023-05-10T03:57:04.241Z,960.37
2023-05-10T03:58:04.209Z,960.40
2023-05-10T03:59:04.205Z,960.42
2023-05-10T04:00:04.193Z,960.45
2023-05-10T04:01:04.195Z,960.46
2023-05-10T04:02:04.257Z,960.46
2023-05-10T04:03:04.205Z,960.44
2023-05-10T04:04:04.232Z,960.44
2023-05-10T04:05:04.145Z,960.41
2023-05-10T04:06:04.162Z,960.41
2023-05-10T04:07:04.123Z,960.50
2023-05-10T04:08:04.096Z,960.49
2023-05-10T04:09:04.077Z,960.47
2023-05-10T04:10:04.096Z,960.46
2023-05-10T04:11:04.049Z,960.42
2023-05-10T04:12:04.049Z,960.45
2023-05-10T04:13:04.144Z,960.43
2023-05-10T04:14:04.054Z,960.43
2023-05-10T04:15:04.049Z,960.42
2023-05-10T04:16:04.012Z,960.45
2023-05-10T04:17:04.098Z,960.46
2023-05-10T04:18:04.779Z,960.49
2023-05-10T04:19:03.992Z,960.43
2023-05-10T04:20:03.995Z,960.45
2023-05-10T04:21:03.956Z,960.43
2023-05-10T04:22:03.955Z,960.43
2023-05-10T04:23:03.943Z,960.45
2023-05-10T04:24:03.919Z,960.45
2023-05-10T04:25:03.940Z,960.48
2023-05-10T04:26:03.911Z,960.48
2023-05-10T04:27:03.897Z,960.48
2023-05-10T04:28:03.873Z,960.46
2023-05-10T04:29:03.849Z,960.47
2023-05-10T04:30:03.874Z,960.51
2023-05-10T04:31:03.907Z,960.48
2023-05-10T04:32:03.820Z,960.50
2023-05-10T04:33:03.826Z,960.45
2023-05-10T04:34:03.816Z,960.54
2023-05-10T04:35:03.790Z,960.55
2023-05-10T04:36:03.823Z,960.54
2023-05-10T04:37:03.771Z,960.56
2023-05-10T04:38:03.786Z,960.57
2023-05-10T04:39:03.767Z,960.57
2023-05-10T04:40:03.744Z,960.53
2023-05-10T04:41:03.752Z,960.53
2023-05-10T04:42:03.733Z,960.59
2023-05-10T04:43:03.698Z,960.63
2023-05-10T04:44:03.711Z,960.67
2023-05-10T04:45:03.674Z,960.71
2023-05-10T04:46:03.755Z,960.72
2023-05-10T04:47:03.681Z,960.68
2023-05-10T04:48:03.765Z,960.67
2023-05-10T04:49:03.629Z,960.65
2023-05-10T04:50:03.652Z,960.72
2023-05-10T04:51:03.612Z,960.69
2023-05-10T04:52:03.591Z,960.71
2023-05-10T04:53:03.632Z,960.83
2023-05-10T04:54:06.404Z,960.80
2023-05-10T04:55:03.582Z,960.80
2023-05-10T04:56:03.568Z,960.76
2023-05-10T04:57:03.588Z,960.78
2023-05-10T04:58:03.540Z,960.73
2023-05-10T04:59:03.525Z,960.74
2023-05-10T05:00:03.530Z,960.73
2023-05-10T05:01:03.545Z,960.72
2023-05-10T05:02:03.611Z,960.74
2023-05-10T05:03:03.577Z,960.75
2023-05-10T05:04:03.481Z,960.78
2023-05-10T05:05:03.469Z,960.77
2023-05-10T05:06:03.464Z,960.76
2023-05-10T05:07:03.442Z,960.74
2023-05-10T05:08:03.435Z,960.77
2023-05-10T05:09:03.427Z,960.78
2023-05-10T05:10:03.433Z,960.73
2023-05-10T05:11:03.397Z,960.76
2023-05-10T05:12:03.387Z,960.77
2023-05-10T05:13:03.462Z,960.74
2023-05-10T05:14:03.370Z,960.77
2023-05-10T05:15:03.346Z,960.79
2023-05-10T05:16:03.383Z,960.80
2023-05-10T05:17:03.328Z,960.81
2023-05-10T05:18:03.390Z,960.82
2023-05-10T05:19:03.306Z,960.84
2023-05-10T05:20:03.294Z,960.84
2023-05-10T05:21:03.306Z,960.85
2023-05-10T05:22:03.276Z,960.88
2023-05-10T05:23:03.267Z,960.86
2023-05-10T05:24:03.253Z,960.91
2023-05-10T05:25:03.241Z,960.89
2023-05-10T05:26:03.242Z,960.95
2023-05-10T05:27:03.206Z,960.91
2023-05-10T05:28:03.215Z,960.89
2023-05-10T05:29:03.189Z,960.90
2023-05-10T05:30:03.229Z,960.93
2023-05-10T05:31:03.164Z,960.94
2023-05-10T05:32:03.304Z,960.92
2023-05-10T05:33:03.219Z,960.94
2023-05-10T05:34:03.127Z,960.93
2023-05-10T05:35:03.108Z,960.92
2023-05-10T05:36:03.144Z,960.94
2023-05-10T05:37:03.080Z,960.98
2023-05-10T05:38:03.105Z,960.99
2023-05-10T05:39:03.087Z,960.98
2023-05-10T05:40:03.063Z,960.96
2023-05-10T05:41:03.060Z,960.97
2023-05-10T05:42:03.081Z,960.96
2023-05-10T05:43:03.023Z,960.97
2023-05-10T05:44:03.015Z,960.97
2023-05-10T05:45:03.015Z,961.01
2023-05-10T05:46:03.070Z,961.02
2023-05-10T05:47:02.981Z,961.09
2023-05-10T05:48:03.525Z,961.09
2023-05-10T05:49:02.947Z,961.18
2023-05-10T05:50:02.937Z,961.15
2023-05-10T05:51:03.817Z,961.12
2023-05-10T05:52:02.940Z,961.12
2023-05-10T05:53:02.920Z,961.12
2023-05-10T05:54:02.950Z,961.07
2023-05-10T05:55:02.894Z,961.07
2023-05-10T05:56:02.878Z,961.14
2023-05-10T05:57:02.882Z,961.11
2023-05-10T05:58:02.849Z,961.12
2023-05-10T05:59:02.871Z,961.16
2023-05-10T06:00:02.863Z,961.21
2023-05-10T06:01:02.816Z,961.18
2023-05-10T06:02:02.836Z,961.19
2023-05-10T06:03:02.902Z,961.20
2023-05-10T06:04:02.871Z,961.19
2023-05-10T06:05:02.781Z,961.18
2023-05-10T06:06:02.774Z,961.14
2023-05-10T06:07:02.822Z,961.19
2023-05-10T06:08:02.763Z,961.21
2023-05-10T06:09:02.732Z,961.28
2023-05-10T06:10:02.736Z,961.27
2023-05-10T06:11:02.716Z,961.22
2023-05-10T06:12:02.693Z,961.24
2023-05-10T06:13:02.709Z,961.21
2023-05-10T06:14:02.694Z,961.15
2023-05-10T06:15:02.676Z,961.23
2023-05-10T06:16:02.665Z,961.26
2023-05-10T06:17:02.737Z,961.30
2023-05-10T06:18:02.682Z,961.31
2023-05-10T06:19:02.662Z,961.33
2023-05-10T06:20:02.643Z,961.33
2023-05-10T06:21:02.602Z,961.32
2023-05-10T06:22:02.601Z,961.34
2023-05-10T06:23:02.583Z,961.34
2023-05-10T06:24:02.664Z,961.35
2023-05-10T06:25:02.583Z,961.37
2023-05-10T06:26:02.556Z,961.33
2023-05-10T06:27:02.549Z,961.35
2023-05-10T06:28:02.515Z,961.35
2023-05-10T06:29:02.535Z,961.38
2023-05-10T06:30:12.226Z,961.38
2023-05-10T06:31:02.547Z,961.37
2023-05-10T06:32:02.470Z,961.37
2023-05-10T06:33:02.495Z,961.37
2023-05-10T06:34:02.467Z,961.45
2023-05-10T06:35:02.467Z,961.46
2023-05-10T06:36:02.450Z,961.47
2023-05-10T06:37:02.428Z,961.43
2023-05-10T06:38:02.413Z,961.45
2023-05-10T06:39:02.407Z,961.46
2023-05-10T06:40:02.394Z,961.46
2023-05-10T06:41:02.386Z,961.40
2023-05-10T06:42:02.359Z,961.48
2023-05-10T06:43:02.358Z,961.39
2023-05-10T06:44:02.357Z,961.44
2023-05-10T06:45:02.329Z,961.41
2023-05-10T06:46:02.391Z,961.42
2023-05-10T06:47:02.310Z,961.46
2023-05-10T06:48:02.356Z,961.46
2023-05-10T06:49:02.287Z,961.51
2023-05-10T06:50:02.257Z,961.52
2023-05-10T06:51:02.270Z,961.51
2023-05-10T06:52:02.262Z,961.48
2023-05-10T06:53:02.247Z,961.52
2023-05-10T06:54:02.252Z,961.49
2023-05-10T06:55:02.224Z,961.46
2023-05-10T06:56:02.213Z,961.49
2023-05-10T06:57:03.833Z,961.50
2023-05-10T06:58:02.177Z,961.54
2023-05-10T06:59:02.227Z,961.57
2023-05-10T07:00:02.175Z,961.52
2023-05-10T07:01:02.205Z,961.48
2023-05-10T07:02:02.178Z,961.53
2023-05-10T07:03:02.171Z,961.52
2023-05-10T07:04:02.135Z,961.54
2023-05-10T07:05:03.449Z,961.57
2023-05-10T07:06:02.080Z,961.51
2023-05-10T07:07:02.075Z,961.54
2023-05-10T07:08:02.070Z,961.55
2023-05-10T07:09:02.087Z,961.55
2023-05-10T07:10:02.062Z,961.55
2023-05-10T07:11:02.035Z,961.61
2023-05-10T07:12:02.144Z,961.63
2023-05-10T07:13:02.067Z,961.62
2023-05-10T07:14:02.049Z,961.61
2023-05-10T07:15:01.991Z,961.61
2023-05-10T07:16:02.053Z,961.58
2023-05-10T07:17:01.993Z,961.59
2023-05-10T07:18:02.016Z,961.67
2023-05-10T07:19:01.945Z,961.67
2023-05-10T07:20:01.926Z,961.67
2023-05-10T07:21:01.989Z,961.67
2023-05-10T07:22:01.924Z,961.65
2023-05-10T07:23:01.884Z,961.64
2023-05-10T07:24:01.902Z,961.63
2023-05-10T07:25:01.869Z,961.65
2023-05-10T07:26:01.863Z,961.60
2023-05-10T07:27:01.846Z,961.66
2023-05-10T07:28:01.854Z,961.69
2023-05-10T07:29:01.809Z,961.73
2023-05-10T07:30:01.858Z,961.73
2023-05-10T07:31:01.865Z,961.71
2023-05-10T07:32:01.826Z,961.68
2023-05-10T07:33:01.812Z,961.74
2023-05-10T07:34:01.788Z,961.71
2023-05-10T07:35:01.747Z,961.74
2023-05-10T07:36:01.780Z,961.70
2023-05-10T07:37:01.753Z,961.73
2023-05-10T07:38:01.731Z,961.76
2023-05-10T07:39:01.740Z,961.73
2023-05-10T07:40:01.726Z,961.75
2023-05-10T07:41:01.708Z,961.70
2023-05-10T07:42:01.694Z,961.79
2023-05-10T07:43:01.670Z,961.76
2023-05-10T07:44:01.659Z,961.71
2023-05-10T07:45:01.646Z,961.74
2023-05-10T07:46:01.721Z,961.73
2023-05-10T07:47:01.626Z,961.68
2023-05-10T07:48:01.672Z,961.68
2023-05-10T07:49:01.608Z,961.67
2023-05-10T07:50:01.584Z,961.72
2023-05-10T07:51:01.589Z,961.65
2023-05-10T07:52:01.580Z,961.71
2023-05-10T07:53:01.545Z,961.69
2023-05-10T07:54:01.545Z,961.71
2023-05-10T07:55:01.534Z,961.76
2023-05-10T07:56:01.517Z,961.75
2023-05-10T07:57:01.516Z,961.79
2023-05-10T07:58:01.506Z,961.77
2023-05-10T07:59:01.496Z,961.80
2023-05-10T08:00:01.478Z,961.82
2023-05-10T08:01:01.457Z,961.81
2023-05-10T08:02:01.532Z,961.80
2023-05-10T08:03:01.510Z,961.83
2023-05-10T08:04:01.612Z,961.84
2023-05-10T08:05:01.417Z,961.86
2023-05-10T08:06:01.411Z,961.88
2023-05-10T08:07:01.399Z,961.92
2023-05-10T08:08:01.390Z,961.90
2023-05-10T08:09:01.357Z,961.85
2023-05-10T08:10:01.363Z,961.87
2023-05-10T08:11:01.350Z,961.85
2023-05-10T08:12:01.360Z,961.91
2023-05-10T08:13:01.335Z,961.87
2023-05-10T08:14:01.333Z,961.82
2023-05-10T08:15:01.305Z,961.86
2023-05-10T08:16:01.371Z,961.93
2023-05-10T08:17:01.298Z,961.89
2023-05-10T08:18:01.364Z,961.89
2023-05-10T08:19:01.365Z,961.93
2023-05-10T08:20:01.254Z,961.93
2023-05-10T08:21:01.268Z,961.95
2023-05-10T08:22:01.234Z,961.96
2023-05-10T08:23:01.216Z,961.92
2023-05-10T08:24:01.212Z,961.94
2023-05-10T08:25:01.190Z,961.94
2023-05-10T08:26:01.177Z,961.95
2023-05-10T08:27:01.191Z,961.91
2023-05-10T08:28:01.160Z,961.95
2023-05-10T08:29:01.150Z,961.96
2023-05-10T08:30:01.139Z,961.93
2023-05-10T08:31:01.172Z,961.86
2023-05-10T08:32:01.109Z,961.87
2023-05-10T08:33:01.168Z,961.90
2023-05-10T08:34:01.119Z,961.96
2023-05-10T08:35:01.105Z,961.97
2023-05-10T08:36:01.115Z,961.99
2023-05-10T08:37:01.063Z,961.96
2023-05-10T08:38:01.055Z,961.97
2023-05-10T08:39:01.081Z,961.98
2023-05-10T08:40:01.008Z,962.00
2023-05-10T08:41:01.027Z,962.06
2023-05-10T08:42:01.028Z,962.06
2023-05-10T08:43:00.996Z,962.08
2023-05-10T08:44:00.991Z,962.04
2023-05-10T08:45:00.981Z,962.08
2023-05-10T08:46:01.074Z,962.07
2023-05-10T08:47:01.034Z,962.12
2023-05-10T08:48:00.969Z,962.08
2023-05-10T08:49:00.928Z,962.14
2023-05-10T08:50:00.918Z,962.11
2023-05-10T08:51:00.912Z,962.12
2023-05-10T08:52:00.918Z,962.18
2023-05-10T08:53:00.880Z,962.15
2023-05-10T08:54:00.875Z,962.16
2023-05-10T08:55:00.861Z,962.14
2023-05-10T08:56:00.845Z,962.16
2023-05-10T08:57:00.839Z,962.19
2023-05-10T08:58:00.847Z,962.16
2023-05-10T08:59:00.805Z,962.16
2023-05-10T09:00:00.808Z,962.17
2023-05-10T09:01:00.804Z,962.20
2023-05-10T09:02:00.788Z,962.23
2023-05-10T09:03:00.806Z,962.18
2023-05-10T09:04:00.841Z,962.20
2023-05-10T09:05:00.909Z,962.20
2023-05-10T09:06:00.738Z,962.23
2023-05-10T09:07:00.729Z,962.18
2023-05-10T09:08:00.721Z,962.16
2023-05-10T09:09:00.708Z,962.13
2023-05-10T09:10:00.695Z,962.14
2023-05-10T09:11:00.684Z,962.06
2023-05-10T09:12:00.702Z,962.06
2023-05-10T09:13:00.665Z,962.00
2023-05-10T09:14:00.666Z,962.01
2023-05-10T09:15:00.679Z,962.03
2023-05-10T09:16:06.951Z,962.01
2023-05-10T09:17:00.632Z,962.02
2023-05-10T09:18:00.657Z,961.99
2023-05-10T09:19:00.655Z,961.99
2023-05-10T09:20:00.578Z,961.99
2023-05-10T09:21:00.620Z,961.98
2023-05-10T09:22:00.584Z,962.01
2023-05-10T09:23:00.564Z,961.98
2023-05-10T09:24:00.535Z,961.96
2023-05-10T09:25:00.535Z,961.97
2023-05-10T09:26:00.509Z,961.97
2023-05-10T09:27:00.505Z,962.01
2023-05-10T09:28:00.478Z,961.99
2023-05-10T09:29:00.480Z,961.96
2023-05-10T09:30:00.479Z,961.97
2023-05-10T09:31:00.509Z,962.00
2023-05-10T09:32:00.448Z,961.97
2023-05-10T09:33:00.747Z,961.96
2023-05-10T09:34:00.425Z,961.97
2023-05-10T09:35:00.415Z,961.91
2023-05-10T09:36:00.391Z,961.94
2023-05-10T09:37:00.377Z,961.99
2023-05-10T09:38:00.390Z,962.00
2023-05-10T09:39:00.371Z,962.04
2023-05-10T09:40:00.362Z,962.05
2023-05-10T09:41:00.339Z,962.08
2023-05-10T09:42:00.350Z,962.05
2023-05-10T09:43:00.321Z,962.04
2023-05-10T09:44:00.284Z,961.98
2023-05-10T09:45:00.322Z,961.93
2023-05-10T09:46:00.324Z,962.00
2023-05-10T09:47:00.294Z,962.00
2023-05-10T09:48:00.406Z,962.03
2023-05-10T09:49:00.270Z,961.98
2023-05-10T09:50:00.923Z,962.04
2023-05-10T09:51:00.312Z,962.01
2023-05-10T09:52:00.229Z,961.99
2023-05-10T09:53:00.217Z,962.02
2023-05-10T09:54:00.205Z,962.06
2023-05-10T09:55:00.228Z,962.05
2023-05-10T09:56:00.187Z,962.07
2023-05-10T09:57:00.168Z,962.13
2023-05-10T09:58:00.172Z,962.17
2023-05-10T09:59:00.147Z,962.27
2023-05-10T10:00:00.183Z,962.44
2023-05-10T10:01:00.194Z,962.37
2023-05-10T10:02:00.204Z,962.34
2023-05-10T10:03:00.295Z,962.35
2023-05-10T10:04:00.129Z,962.31
2023-05-10T10:05:00.179Z,962.38
2023-05-10T10:06:00.098Z,962.50
2023-05-10T10:07:00.054Z,962.57
2023-05-10T10:08:00.064Z,962.54
2023-05-10T10:09:00.025Z,962.53
2023-05-10T10:10:00.030Z,962.59
2023-05-10T10:11:00.002Z,962.69
2023-05-10T10:12:00.037Z,962.69
2023-05-10T10:13:00.001Z,962.74
2023-05-10T10:14:00.021Z,962.79
2023-05-10T10:14:59.978Z,962.80
2023-05-10T10:16:00.156Z,962.85
2023-05-10T10:17:08.222Z,962.88
2023-05-10T10:17:59.973Z,962.77
2023-05-10T10:19:00.068Z,962.84
2023-05-10T10:19:59.917Z,962.84
2023-05-10T10:20:59.954Z,962.83
2023-05-10T10:21:59.890Z,962.86
2023-05-10T10:22:59.866Z,962.86
2023-05-10T10:23:59.873Z,962.85
2023-05-10T10:24:59.871Z,962.90
2023-05-10T10:25:59.847Z,962.91
2023-05-10T10:26:59.853Z,962.91
2023-05-10T10:27:59.802Z,962.87
2023-05-10T10:28:59.817Z,962.91
2023-05-10T10:29:59.798Z,962.86
2023-05-10T10:30:59.800Z,962.87
2023-05-10T10:31:59.812Z,962.90
2023-05-10T10:32:59.812Z,962.95
2023-05-10T10:33:59.734Z,962.92
2023-05-10T10:34:59.745Z,962.98
2023-05-10T10:35:59.721Z,962.96
2023-05-10T10:36:59.725Z,962.98
2023-05-10T10:37:59.692Z,962.97
2023-05-10T10:38:59.704Z,962.99
2023-05-10T10:39:59.675Z,962.90
2023-05-10T10:40:59.670Z,962.89
2023-05-10T10:41:59.674Z,962.87
2023-05-10T10:42:59.651Z,962.88
2023-05-10T10:43:59.640Z,962.82
2023-05-10T10:44:59.625Z,962.85
2023-05-10T10:45:59.613Z,962.86
2023-05-10T10:46:59.758Z,962.87
2023-05-10T10:47:59.622Z,962.92
2023-05-10T10:48:59.585Z,962.91
2023-05-10T10:49:59.568Z,962.88
2023-05-10T10:50:59.579Z,962.80
2023-05-10T10:52:00.341Z,962.84
2023-05-10T10:52:59.618Z,962.84
2023-05-10T10:53:59.535Z,962.76
2023-05-10T10:54:59.552Z,962.85
2023-05-10T10:55:59.511Z,962.84
2023-05-10T10:56:59.481Z,962.83
2023-05-10T10:57:59.483Z,962.85
2023-05-10T10:58:59.459Z,962.83
2023-05-10T10:59:59.438Z,962.78
2023-05-10T11:00:59.496Z,962.81
2023-05-10T11:01:59.428Z,962.80
2023-05-10T11:02:59.473Z,962.80
2023-05-10T11:03:59.526Z,962.79
2023-05-10T11:04:59.401Z,962.77
2023-05-10T11:05:59.392Z,962.75
2023-05-10T11:06:59.405Z,962.78
2023-05-10T11:07:59.372Z,962.78
2023-05-10T11:08:59.376Z,962.76
2023-05-10T11:09:59.357Z,962.79
2023-05-10T11:10:59.343Z,962.77
2023-05-10T11:11:59.327Z,962.80
2023-05-10T11:12:59.314Z,962.81
2023-05-10T11:13:59.301Z,962.79
2023-05-10T11:14:59.304Z,962.75
2023-05-10T11:15:59.284Z,962.74
2023-05-10T11:16:59.348Z,962.71
2023-05-10T11:17:59.243Z,962.72
2023-05-10T11:18:59.263Z,962.67
2023-05-10T11:19:59.217Z,962.68
2023-05-10T11:20:59.218Z,962.71
2023-05-10T11:21:59.203Z,962.66
2023-05-10T11:22:59.213Z,962.66
2023-05-10T11:23:59.189Z,962.65
2023-05-10T11:24:59.189Z,962.62
2023-05-10T11:25:59.174Z,962.62
2023-05-10T11:26:59.158Z,962.56
2023-05-10T11:27:59.146Z,962.57
2023-05-10T11:28:59.140Z,962.56
2023-05-10T11:29:59.140Z,962.58
2023-05-10T11:30:59.159Z,962.59
2023-05-10T11:31:59.174Z,962.58
2023-05-10T11:32:59.131Z,962.51
2023-05-10T11:33:59.080Z,962.58
2023-05-10T11:34:59.111Z,962.64
2023-05-10T11:35:59.056Z,962.64
2023-05-10T11:36:59.078Z,962.61
2023-05-10T11:37:59.042Z,962.61
2023-05-10T11:38:59.040Z,962.67
2023-05-10T11:39:59.023Z,962.60
2023-05-10T11:40:59.005Z,962.64
2023-05-10T11:41:58.986Z,962.66
2023-05-10T11:42:58.982Z,962.65
2023-05-10T11:43:58.967Z,962.66
2023-05-10T11:44:58.982Z,962.63
2023-05-10T11:45:59.025Z,962.60
2023-05-10T11:46:58.958Z,962.60
2023-05-10T11:47:59.005Z,962.58
2023-05-10T11:48:58.907Z,962.58
2023-05-10T11:49:58.915Z,962.57
2023-05-10T11:50:59.187Z,962.54
2023-05-10T11:51:59.348Z,962.51
2023-05-10T11:52:58.873Z,962.55
2023-05-10T11:53:59.150Z,962.55
2023-05-10T11:54:59.771Z,962.55
2023-05-10T11:55:58.932Z,962.54
2023-05-10T11:56:59.060Z,962.58
2023-05-10T11:57:58.855Z,962.55
2023-05-10T11:58:58.811Z,962.64
2023-05-10T11:59:59.068Z,962.60
2023-05-10T12:00:58.795Z,962.59
2023-05-10T12:01:58.775Z,962.59
2023-05-10T12:02:58.903Z,962.58
2023-05-10T12:03:59.158Z,962.58
2023-05-10T12:04:58.892Z,962.58
2023-05-10T12:05:58.748Z,962.60
2023-05-10T12:06:58.775Z,962.55
2023-05-10T12:07:58.718Z,962.56
2023-05-10T12:08:58.712Z,962.56
2023-05-10T12:09:58.686Z,962.52
2023-05-10T12:10:58.687Z,962.51
2023-05-10T12:11:58.691Z,962.50
2023-05-10T12:12:58.673Z,962.50
2023-05-10T12:13:58.644Z,962.55
2023-05-10T12:14:58.661Z,962.54
2023-05-10T12:15:58.693Z,962.56
2023-05-10T12:16:58.626Z,962.57
2023-05-10T12:17:58.637Z,962.59
2023-05-10T12:18:58.621Z,962.59
2023-05-10T12:19:58.580Z,962.59
2023-05-10T12:20:58.559Z,962.60
2023-05-10T12:21:58.567Z,962.55
2023-05-10T12:23:00.503Z,962.59
2023-05-10T12:23:58.539Z,962.57
2023-05-10T12:24:58.514Z,962.61
2023-05-10T12:25:58.520Z,962.66
2023-05-10T12:26:58.501Z,962.67
2023-05-10T12:27:58.498Z,962.68